sensor_id;sensor_type;location;lat;lon;timestamp;P1;durP1;ratioP1;P2;durP2;ratioP2
7013;SDS011;3547;50.774;12.918;2023-06-26T00:19:57;4.50;;;2.88;;
7013;SDS011;3547;50.774;12.918;2023-06-26T00:22:30;3.03;;;2.40;;
7013;SDS011;3547;50.774;12.918;2023-06-26T00:25:00;3.05;;;2.58;;
7013;SDS011;3547;50.774;12.918;2023-06-26T01:15:21;3.17;;;2.72;;
7013;SDS011;3547;50.774;12.918;2023-06-26T04:07:33;3.55;;;3.13;;
7013;SDS011;3547;50.774;12.918;2023-06-26T13:47:23;3.83;;;3.10;;
7013;SDS011;3547;50.774;12.918;2023-06-26T15:00:20;6.05;;;3.85;;
7013;SDS011;3547;50.774;12.918;2023-06-26T15:12:45;3.88;;;3.58;;
7013;SDS011;3547;50.774;12.918;2023-06-26T15:15:12;4.22;;;3.55;;
7013;SDS011;3547;50.774;12.918;2023-06-26T15:17:38;3.83;;;3.08;;
7013;SDS011;3547;50.774;12.918;2023-06-26T15:20:05;3.78;;;3.15;;
7013;SDS011;3547;50.774;12.918;2023-06-26T15:22:33;3.78;;;3.35;;
7013;SDS011;3547;50.774;12.918;2023-06-26T15:25:08;4.05;;;3.63;;
7013;SDS011;3547;50.774;12.918;2023-06-26T15:28:32;7.45;;;4.10;;
7013;SDS011;3547;50.774;12.918;2023-06-26T15:51:56;4.63;;;4.20;;
7013;SDS011;3547;50.774;12.918;2023-06-26T17:03:08;7.15;;;5.25;;
7013;SDS011;3547;50.774;12.918;2023-06-26T17:06:34;7.07;;;5.20;;
7013;SDS011;3547;50.774;12.918;2023-06-26T17:09:00;5.07;;;4.45;;
7013;SDS011;3547;50.774;12.918;2023-06-26T17:11:27;6.00;;;4.70;;
7013;SDS011;3547;50.774;12.918;2023-06-26T17:24:17;6.35;;;4.97;;
7013;SDS011;3547;50.774;12.918;2023-06-26T17:26:44;4.53;;;3.95;;
7013;SDS011;3547;50.774;12.918;2023-06-26T17:29:10;4.57;;;4.18;;
7013;SDS011;3547;50.774;12.918;2023-06-26T17:57:52;8.05;;;4.95;;
7013;SDS011;3547;50.774;12.918;2023-06-26T20:17:01;8.07;;;5.90;;
7013;SDS011;3547;50.774;12.918;2023-06-26T20:19:38;8.18;;;6.47;;
7013;SDS011;3547;50.774;12.918;2023-06-26T20:22:19;7.03;;;5.88;;
7013;SDS011;3547;50.774;12.918;2023-06-26T20:24:46;7.63;;;5.60;;
7013;SDS011;3547;50.774;12.918;2023-06-26T20:27:16;7.47;;;6.20;;
7013;SDS011;3547;50.774;12.918;2023-06-26T20:29:42;7.30;;;5.53;;
7013;SDS011;3547;50.774;12.918;2023-06-26T20:32:11;7.63;;;5.78;;
7013;SDS011;3547;50.774;12.918;2023-06-26T20:34:38;8.85;;;6.80;;
7013;SDS011;3547;50.774;12.918;2023-06-26T20:37:09;6.88;;;6.00;;
7013;SDS011;3547;50.774;12.918;2023-06-26T20:39:35;7.10;;;5.78;;
7013;SDS011;3547;50.774;12.918;2023-06-26T20:42:02;6.28;;;5.68;;
7013;SDS011;3547;50.774;12.918;2023-06-26T20:44:29;7.72;;;6.35;;
7013;SDS011;3547;50.774;12.918;2023-06-26T20:46:57;7.72;;;5.80;;
7013;SDS011;3547;50.774;12.918;2023-06-26T20:49:24;8.75;;;6.60;;
7013;SDS011;3547;50.774;12.918;2023-06-26T20:51:51;8.35;;;6.63;;
7013;SDS011;3547;50.774;12.918;2023-06-26T20:54:21;9.63;;;6.30;;
7013;SDS011;3547;50.774;12.918;2023-06-26T20:56:48;9.85;;;5.70;;
7013;SDS011;3547;50.774;12.918;2023-06-26T21:01:55;7.75;;;6.95;;
7013;SDS011;3547;50.774;12.918;2023-06-26T21:04:43;9.52;;;6.88;;
7013;SDS011;3547;50.774;12.918;2023-06-26T21:07:09;8.32;;;7.53;;
7013;SDS011;3547;50.774;12.918;2023-06-26T21:09:37;7.72;;;6.63;;
7013;SDS011;3547;50.774;12.918;2023-06-26T21:12:04;11.10;;;7.25;;
7013;SDS011;3547;50.774;12.918;2023-06-26T21:17:07;10.88;;;7.10;;
7013;SDS011;3547;50.774;12.918;2023-06-26T21:19:40;8.25;;;7.28;;
7013;SDS011;3547;50.774;12.918;2023-06-26T21:22:11;8.60;;;7.40;;
7013;SDS011;3547;50.774;12.918;2023-06-26T21:24:48;10.63;;;7.47;;
7013;SDS011;3547;50.774;12.918;2023-06-26T21:30:52;8.95;;;7.63;;
7013;SDS011;3547;50.774;12.918;2023-06-26T21:33:43;7.43;;;6.35;;
7013;SDS011;3547;50.774;12.918;2023-06-26T23:33:59;3.65;;;1.95;;
7013;SDS011;3547;50.774;12.918;2023-06-26T23:36:34;2.33;;;2.10;;
7013;SDS011;3547;50.774;12.918;2023-06-26T23:39:11;2.47;;;2.00;;
7013;SDS011;3547;50.774;12.918;2023-06-26T23:49:58;1.80;;;1.70;;
7013;SDS011;3547;50.774;12.918;2023-06-26T23:52:30;1.60;;;1.50;;
7013;SDS011;3547;50.774;12.918;2023-06-26T23:55:01;3.50;;;1.77;;
